sensor_id;sensor_type;location;lat;lon;timestamp;temperature;humidity
83102;SHT31;72973;51.784;4.660;2023-12-22T00:00:46;10.21;66.25
83102;SHT31;72973;51.784;4.660;2023-12-22T00:03:14;10.28;66.09
83102;SHT31;72973;51.784;4.660;2023-12-22T00:05:41;10.39;66.31
83102;SHT31;72973;51.784;4.660;2023-12-22T00:08:08;10.43;66.78
83102;SHT31;72973;51.784;4.660;2023-12-22T00:10:34;10.42;66.95
83102;SHT31;72973;51.784;4.660;2023-12-22T00:13:00;10.46;67.22
83102;SHT31;72973;51.784;4.660;2023-12-22T00:15:27;10.49;67.21
83102;SHT31;72973;51.784;4.660;2023-12-22T00:17:53;10.42;67.30
83102;SHT31;72973;51.784;4.660;2023-12-22T00:20:20;10.35;67.30
83102;SHT31;72973;51.784;4.660;2023-12-22T00:22:46;10.29;66.69
83102;SHT31;72973;51.784;4.660;2023-12-22T00:25:12;10.28;66.93
83102;SHT31;72973;51.784;4.660;2023-12-22T00:27:39;10.26;66.26
83102;SHT31;72973;51.784;4.660;2023-12-22T00:30:06;10.28;66.59
83102;SHT31;72973;51.784;4.660;2023-12-22T00:32:32;10.31;66.25
83102;SHT31;72973;51.784;4.660;2023-12-22T00:34:58;10.31;65.80
83102;SHT31;72973;51.784;4.660;2023-12-22T00:37:25;10.29;66.19
83102;SHT31;72973;51.784;4.660;2023-12-22T00:39:51;10.22;65.44
83102;SHT31;72973;51.784;4.660;2023-12-22T00:42:18;10.23;65.66
83102;SHT31;72973;51.784;4.660;2023-12-22T00:44:44;10.26;65.47
83102;SHT31;72973;51.784;4.660;2023-12-22T00:47:10;10.22;65.76
83102;SHT31;72973;51.784;4.660;2023-12-22T00:49:37;10.22;65.86
83102;SHT31;72973;51.784;4.660;2023-12-22T00:52:04;10.19;65.33
83102;SHT31;72973;51.784;4.660;2023-12-22T00:54:31;10.21;63.88
83102;SHT31;72973;51.784;4.660;2023-12-22T00:56:57;10.28;63.60
83102;SHT31;72973;51.784;4.660;2023-12-22T00:59:24;10.22;63.69
83102;SHT31;72973;51.784;4.660;2023-12-22T01:01:50;10.25;63.81
83102;SHT31;72973;51.784;4.660;2023-12-22T01:04:17;10.11;63.13
83102;SHT31;72973;51.784;4.660;2023-12-22T01:06:43;10.11;63.12
83102;SHT31;72973;51.784;4.660;2023-12-22T01:09:10;10.06;62.94
83102;SHT31;72973;51.784;4.660;2023-12-22T01:11:36;10.06;63.38
83102;SHT31;72973;51.784;4.660;2023-12-22T01:14:03;10.08;63.67
83102;SHT31;72973;51.784;4.660;2023-12-22T01:16:29;10.09;63.76
83102;SHT31;72973;51.784;4.660;2023-12-22T01:18:55;10.09;64.24
83102;SHT31;72973;51.784;4.660;2023-12-22T01:21:22;10.14;64.28
83102;SHT31;72973;51.784;4.660;2023-12-22T01:23:48;10.18;64.31
83102;SHT31;72973;51.784;4.660;2023-12-22T01:26:15;10.26;64.73
83102;SHT31;72973;51.784;4.660;2023-12-22T01:28:41;10.18;64.00
83102;SHT31;72973;51.784;4.660;2023-12-22T01:31:07;10.23;63.90
83102;SHT31;72973;51.784;4.660;2023-12-22T01:33:34;10.16;64.18
83102;SHT31;72973;51.784;4.660;2023-12-22T01:36:00;10.15;63.38
83102;SHT31;72973;51.784;4.660;2023-12-22T01:38:27;10.08;61.33
83102;SHT31;72973;51.784;4.660;2023-12-22T01:40:53;10.04;61.47
83102;SHT31;72973;51.784;4.660;2023-12-22T01:43:20;10.04;61.56
83102;SHT31;72973;51.784;4.660;2023-12-22T01:45:49;10.02;61.74
83102;SHT31;72973;51.784;4.660;2023-12-22T01:48:16;10.08;62.03
83102;SHT31;72973;51.784;4.660;2023-12-22T01:50:43;10.04;62.30
83102;SHT31;72973;51.784;4.660;2023-12-22T01:53:10;10.05;61.89
83102;SHT31;72973;51.784;4.660;2023-12-22T01:55:37;10.11;62.00
83102;SHT31;72973;51.784;4.660;2023-12-22T01:58:04;10.18;62.20
83102;SHT31;72973;51.784;4.660;2023-12-22T02:00:30;10.29;62.88
83102;SHT31;72973;51.784;4.660;2023-12-22T02:02:57;10.18;66.78
83102;SHT31;72973;51.784;4.660;2023-12-22T02:05:23;9.74;70.41
83102;SHT31;72973;51.784;4.660;2023-12-22T02:07:50;9.46;71.67
83102;SHT31;72973;51.784;4.660;2023-12-22T02:10:16;9.36;71.62
83102;SHT31;72973;51.784;4.660;2023-12-22T02:12:43;9.37;72.50
83102;SHT31;72973;51.784;4.660;2023-12-22T02:15:09;9.36;72.72
83102;SHT31;72973;51.784;4.660;2023-12-22T02:17:41;9.33;73.21
83102;SHT31;72973;51.784;4.660;2023-12-22T02:20:09;9.36;73.43
83102;SHT31;72973;51.784;4.660;2023-12-22T02:22:36;9.39;73.55
83102;SHT31;72973;51.784;4.660;2023-12-22T02:25:02;9.48;72.29
83102;SHT31;72973;51.784;4.660;2023-12-22T02:27:38;9.61;71.36
83102;SHT31;72973;51.784;4.660;2023-12-22T02:30:14;9.69;70.43
83102;SHT31;72973;51.784;4.660;2023-12-22T02:32:48;9.80;69.32
83102;SHT31;72973;51.784;4.660;2023-12-22T02:35:19;9.95;67.97
83102;SHT31;72973;51.784;4.660;2023-12-22T02:37:51;10.08;67.85
83102;SHT31;72973;51.784;4.660;2023-12-22T02:40:17;10.15;67.93
83102;SHT31;72973;51.784;4.660;2023-12-22T02:42:46;10.11;67.26
83102;SHT31;72973;51.784;4.660;2023-12-22T02:45:15;10.14;66.75
83102;SHT31;72973;51.784;4.660;2023-12-22T02:47:41;10.15;67.02
83102;SHT31;72973;51.784;4.660;2023-12-22T02:50:09;10.16;67.20
83102;SHT31;72973;51.784;4.660;2023-12-22T02:52:35;10.26;67.34
83102;SHT31;72973;51.784;4.660;2023-12-22T02:55:03;10.31;67.56
83102;SHT31;72973;51.784;4.660;2023-12-22T02:57:29;10.32;67.61
83102;SHT31;72973;51.784;4.660;2023-12-22T02:59:56;10.31;67.01
83102;SHT31;72973;51.784;4.660;2023-12-22T03:02:23;10.31;67.01
83102;SHT31;72973;51.784;4.660;2023-12-22T03:04:49;10.29;65.90
83102;SHT31;72973;51.784;4.660;2023-12-22T03:07:16;10.31;65.55
83102;SHT31;72973;51.784;4.660;2023-12-22T03:09:43;10.31;65.88
83102;SHT31;72973;51.784;4.660;2023-12-22T03:12:10;10.28;65.81
83102;SHT31;72973;51.784;4.660;2023-12-22T03:14:37;10.33;65.93
83102;SHT31;72973;51.784;4.660;2023-12-22T03:17:05;10.31;65.80
83102;SHT31;72973;51.784;4.660;2023-12-22T03:19:32;10.33;66.02
83102;SHT31;72973;51.784;4.660;2023-12-22T03:21:59;10.35;65.95
83102;SHT31;72973;51.784;4.660;2023-12-22T03:24:26;10.39;65.67
83102;SHT31;72973;51.784;4.660;2023-12-22T03:26:54;10.38;65.32
83102;SHT31;72973;51.784;4.660;2023-12-22T03:29:21;10.39;64.68
83102;SHT31;72973;51.784;4.660;2023-12-22T03:31:47;10.43;64.95
83102;SHT31;72973;51.784;4.660;2023-12-22T03:34:13;10.42;65.27
83102;SHT31;72973;51.784;4.660;2023-12-22T03:36:40;10.35;63.60
83102;SHT31;72973;51.784;4.660;2023-12-22T03:39:06;10.45;64.04
83102;SHT31;72973;51.784;4.660;2023-12-22T03:41:33;10.45;63.76
83102;SHT31;72973;51.784;4.660;2023-12-22T03:44:00;10.41;64.17
83102;SHT31;72973;51.784;4.660;2023-12-22T03:46:26;10.38;64.23
83102;SHT31;72973;51.784;4.660;2023-12-22T03:48:53;10.41;63.59
83102;SHT31;72973;51.784;4.660;2023-12-22T03:51:19;10.41;63.29
83102;SHT31;72973;51.784;4.660;2023-12-22T03:53:46;10.39;62.89
83102;SHT31;72973;51.784;4.660;2023-12-22T03:56:12;10.43;62.65
83102;SHT31;72973;51.784;4.660;2023-12-22T03:58:38;10.43;63.12
83102;SHT31;72973;51.784;4.660;2023-12-22T04:01:05;10.52;63.71
83102;SHT31;72973;51.784;4.660;2023-12-22T04:03:34;10.50;63.71
83102;SHT31;72973;51.784;4.660;2023-12-22T04:06:03;10.52;64.07
83102;SHT31;72973;51.784;4.660;2023-12-22T04:08:30;10.55;64.96
83102;SHT31;72973;51.784;4.660;2023-12-22T04:10:56;10.55;66.06
83102;SHT31;72973;51.784;4.660;2023-12-22T04:13:23;10.50;67.43
83102;SHT31;72973;51.784;4.660;2023-12-22T04:15:49;10.48;68.61
83102;SHT31;72973;51.784;4.660;2023-12-22T04:18:16;10.46;68.70
83102;SHT31;72973;51.784;4.660;2023-12-22T04:20:42;10.45;69.22
83102;SHT31;72973;51.784;4.660;2023-12-22T04:23:09;10.42;69.42
83102;SHT31;72973;51.784;4.660;2023-12-22T04:25:35;10.43;69.50
83102;SHT31;72973;51.784;4.660;2023-12-22T04:28:01;10.55;69.00
83102;SHT31;72973;51.784;4.660;2023-12-22T04:30:28;10.53;68.45
83102;SHT31;72973;51.784;4.660;2023-12-22T04:32:54;10.63;68.13
83102;SHT31;72973;51.784;4.660;2023-12-22T04:35:22;10.67;68.54
83102;SHT31;72973;51.784;4.660;2023-12-22T04:37:48;10.61;69.02
83102;SHT31;72973;51.784;4.660;2023-12-22T04:40:15;10.60;69.62
83102;SHT31;72973;51.784;4.660;2023-12-22T04:42:41;10.55;70.37
83102;SHT31;72973;51.784;4.660;2023-12-22T04:45:08;10.56;71.04
83102;SHT31;72973;51.784;4.660;2023-12-22T04:47:34;10.53;72.10
83102;SHT31;72973;51.784;4.660;2023-12-22T04:50:01;10.49;73.17
83102;SHT31;72973;51.784;4.660;2023-12-22T04:52:27;10.39;74.04
83102;SHT31;72973;51.784;4.660;2023-12-22T04:54:55;10.35;74.70
83102;SHT31;72973;51.784;4.660;2023-12-22T04:57:22;10.36;75.10
83102;SHT31;72973;51.784;4.660;2023-12-22T04:59:48;10.35;75.50
83102;SHT31;72973;51.784;4.660;2023-12-22T05:02:15;10.38;75.92
83102;SHT31;72973;51.784;4.660;2023-12-22T05:04:41;10.39;75.96
83102;SHT31;72973;51.784;4.660;2023-12-22T05:07:08;10.36;76.32
83102;SHT31;72973;51.784;4.660;2023-12-22T05:09:36;10.41;75.90
83102;SHT31;72973;51.784;4.660;2023-12-22T05:12:03;10.46;75.77
83102;SHT31;72973;51.784;4.660;2023-12-22T05:14:29;10.50;75.88
83102;SHT31;72973;51.784;4.660;2023-12-22T05:16:56;10.49;77.05
83102;SHT31;72973;51.784;4.660;2023-12-22T05:19:23;10.29;77.44
83102;SHT31;72973;51.784;4.660;2023-12-22T05:21:49;10.32;77.43
83102;SHT31;72973;51.784;4.660;2023-12-22T05:24:15;10.23;77.64
83102;SHT31;72973;51.784;4.660;2023-12-22T05:26:42;10.23;77.63
83102;SHT31;72973;51.784;4.660;2023-12-22T05:29:08;10.18;77.50
83102;SHT31;72973;51.784;4.660;2023-12-22T05:31:36;10.21;77.03
83102;SHT31;72973;51.784;4.660;2023-12-22T05:34:02;10.18;76.78
83102;SHT31;72973;51.784;4.660;2023-12-22T05:36:29;10.26;76.41
83102;SHT31;72973;51.784;4.660;2023-12-22T05:38:56;10.28;76.55
83102;SHT31;72973;51.784;4.660;2023-12-22T05:41:22;10.23;76.82
83102;SHT31;72973;51.784;4.660;2023-12-22T05:43:49;10.25;76.84
83102;SHT31;72973;51.784;4.660;2023-12-22T05:46:15;10.31;76.42
83102;SHT31;72973;51.784;4.660;2023-12-22T05:48:41;10.32;76.12
83102;SHT31;72973;51.784;4.660;2023-12-22T05:51:08;10.29;76.08
83102;SHT31;72973;51.784;4.660;2023-12-22T05:53:40;10.35;75.77
83102;SHT31;72973;51.784;4.660;2023-12-22T05:56:20;10.42;75.15
83102;SHT31;72973;51.784;4.660;2023-12-22T05:58:48;10.46;74.94
83102;SHT31;72973;51.784;4.660;2023-12-22T06:01:17;10.50;75.07
83102;SHT31;72973;51.784;4.660;2023-12-22T06:03:48;10.56;74.85
83102;SHT31;72973;51.784;4.660;2023-12-22T06:06:14;10.60;74.76
83102;SHT31;72973;51.784;4.660;2023-12-22T06:08:41;10.60;74.55
83102;SHT31;72973;51.784;4.660;2023-12-22T06:11:07;10.60;74.79
83102;SHT31;72973;51.784;4.660;2023-12-22T06:13:34;10.67;74.55
83102;SHT31;72973;51.784;4.660;2023-12-22T06:16:01;10.70;74.48
83102;SHT31;72973;51.784;4.660;2023-12-22T06:18:27;10.60;74.38
83102;SHT31;72973;51.784;4.660;2023-12-22T06:20:53;10.64;74.27
83102;SHT31;72973;51.784;4.660;2023-12-22T06:23:20;10.71;74.07
83102;SHT31;72973;51.784;4.660;2023-12-22T06:25:47;10.69;73.45
83102;SHT31;72973;51.784;4.660;2023-12-22T06:28:14;10.67;73.61
83102;SHT31;72973;51.784;4.660;2023-12-22T06:30:43;10.69;73.77
83102;SHT31;72973;51.784;4.660;2023-12-22T06:33:10;10.71;73.73
83102;SHT31;72973;51.784;4.660;2023-12-22T06:35:37;10.73;73.77
83102;SHT31;72973;51.784;4.660;2023-12-22T06:38:03;10.74;73.75
83102;SHT31;72973;51.784;4.660;2023-12-22T06:40:34;10.71;73.96
83102;SHT31;72973;51.784;4.660;2023-12-22T06:43:00;10.77;73.94
83102;SHT31;72973;51.784;4.660;2023-12-22T06:45:27;10.74;73.88
83102;SHT31;72973;51.784;4.660;2023-12-22T06:47:54;10.73;73.87
83102;SHT31;72973;51.784;4.660;2023-12-22T06:50:21;10.77;73.73
83102;SHT31;72973;51.784;4.660;2023-12-22T06:52:47;10.77;73.67
83102;SHT31;72973;51.784;4.660;2023-12-22T06:55:15;10.77;73.46
83102;SHT31;72973;51.784;4.660;2023-12-22T06:57:41;10.79;73.63
83102;SHT31;72973;51.784;4.660;2023-12-22T07:00:09;10.76;73.58
83102;SHT31;72973;51.784;4.660;2023-12-22T07:02:36;10.74;73.88
83102;SHT31;72973;51.784;4.660;2023-12-22T07:07:51;10.84;74.15
83102;SHT31;72973;51.784;4.660;2023-12-22T07:10:17;10.79;74.23
83102;SHT31;72973;51.784;4.660;2023-12-22T07:12:44;10.79;74.45
83102;SHT31;72973;51.784;4.660;2023-12-22T07:15:10;10.80;74.60
83102;SHT31;72973;51.784;4.660;2023-12-22T07:17:37;10.73;74.79
83102;SHT31;72973;51.784;4.660;2023-12-22T07:20:03;10.70;75.06
83102;SHT31;72973;51.784;4.660;2023-12-22T07:22:30;10.73;75.18
83102;SHT31;72973;51.784;4.660;2023-12-22T07:24:56;10.67;75.55
83102;SHT31;72973;51.784;4.660;2023-12-22T07:27:23;10.70;75.59
83102;SHT31;72973;51.784;4.660;2023-12-22T07:29:49;10.69;75.77
83102;SHT31;72973;51.784;4.660;2023-12-22T07:32:16;10.67;76.11
83102;SHT31;72973;51.784;4.660;2023-12-22T07:34:42;10.66;76.21
83102;SHT31;72973;51.784;4.660;2023-12-22T07:37:09;10.60;76.34
83102;SHT31;72973;51.784;4.660;2023-12-22T07:39:35;10.64;76.30
83102;SHT31;72973;51.784;4.660;2023-12-22T07:42:02;10.69;76.30
83102;SHT31;72973;51.784;4.660;2023-12-22T07:44:28;10.71;76.48
83102;SHT31;72973;51.784;4.660;2023-12-22T07:46:59;10.76;76.72
83102;SHT31;72973;51.784;4.660;2023-12-22T07:49:25;10.77;77.00
83102;SHT31;72973;51.784;4.660;2023-12-22T07:51:52;10.74;77.44
83102;SHT31;72973;51.784;4.660;2023-12-22T07:54:19;10.71;77.94
83102;SHT31;72973;51.784;4.660;2023-12-22T07:56:45;10.67;78.65
83102;SHT31;72973;51.784;4.660;2023-12-22T07:59:12;10.60;79.29
83102;SHT31;72973;51.784;4.660;2023-12-22T08:01:38;10.52;79.77
83102;SHT31;72973;51.784;4.660;2023-12-22T08:04:06;10.42;80.36
83102;SHT31;72973;51.784;4.660;2023-12-22T08:06:32;10.41;80.78
83102;SHT31;72973;51.784;4.660;2023-12-22T08:08:59;10.43;80.86
83102;SHT31;72973;51.784;4.660;2023-12-22T08:11:25;10.36;81.33
83102;SHT31;72973;51.784;4.660;2023-12-22T08:13:52;10.33;82.15
83102;SHT31;72973;51.784;4.660;2023-12-22T08:16:19;10.33;82.48
83102;SHT31;72973;51.784;4.660;2023-12-22T08:18:46;10.41;82.47
83102;SHT31;72973;51.784;4.660;2023-12-22T08:21:13;10.36;82.88
83102;SHT31;72973;51.784;4.660;2023-12-22T08:23:41;10.33;83.18
83102;SHT31;72973;51.784;4.660;2023-12-22T08:26:07;10.39;83.25
83102;SHT31;72973;51.784;4.660;2023-12-22T08:28:34;10.38;83.34
83102;SHT31;72973;51.784;4.660;2023-12-22T08:31:00;10.45;83.34
83102;SHT31;72973;51.784;4.660;2023-12-22T08:33:27;10.43;83.42
83102;SHT31;72973;51.784;4.660;2023-12-22T08:35:53;10.45;83.59
83102;SHT31;72973;51.784;4.660;2023-12-22T08:38:19;10.52;83.87
83102;SHT31;72973;51.784;4.660;2023-12-22T08:40:46;10.52;84.10
83102;SHT31;72973;51.784;4.660;2023-12-22T08:43:12;10.50;84.19
83102;SHT31;72973;51.784;4.660;2023-12-22T08:45:39;10.53;84.51
83102;SHT31;72973;51.784;4.660;2023-12-22T08:48:05;10.50;84.72
83102;SHT31;72973;51.784;4.660;2023-12-22T08:50:34;10.46;84.98
83102;SHT31;72973;51.784;4.660;2023-12-22T08:53:00;10.43;85.66
83102;SHT31;72973;51.784;4.660;2023-12-22T08:55:27;10.42;85.67
83102;SHT31;72973;51.784;4.660;2023-12-22T08:57:53;10.43;85.71
83102;SHT31;72973;51.784;4.660;2023-12-22T09:00:20;10.45;85.74
83102;SHT31;72973;51.784;4.660;2023-12-22T09:02:46;10.53;85.32
83102;SHT31;72973;51.784;4.660;2023-12-22T09:05:13;10.53;85.28
83102;SHT31;72973;51.784;4.660;2023-12-22T09:07:39;10.64;85.15
83102;SHT31;72973;51.784;4.660;2023-12-22T09:10:06;10.77;84.76
83102;SHT31;72973;51.784;4.660;2023-12-22T09:12:32;10.70;84.60
83102;SHT31;72973;51.784;4.660;2023-12-22T09:14:59;10.73;84.61
83102;SHT31;72973;51.784;4.660;2023-12-22T09:17:26;10.76;84.41
83102;SHT31;72973;51.784;4.660;2023-12-22T09:19:53;10.83;84.10
83102;SHT31;72973;51.784;4.660;2023-12-22T09:22:20;10.93;84.10
83102;SHT31;72973;51.784;4.660;2023-12-22T09:24:47;10.90;83.99
83102;SHT31;72973;51.784;4.660;2023-12-22T09:27:14;10.91;83.92
83102;SHT31;72973;51.784;4.660;2023-12-22T09:29:41;10.91;83.80
83102;SHT31;72973;51.784;4.660;2023-12-22T09:32:08;11.00;83.83
83102;SHT31;72973;51.784;4.660;2023-12-22T09:34:34;10.97;83.60
83102;SHT31;72973;51.784;4.660;2023-12-22T09:37:01;11.04;83.42
83102;SHT31;72973;51.784;4.660;2023-12-22T09:39:27;11.03;83.26
83102;SHT31;72973;51.784;4.660;2023-12-22T09:41:55;11.08;83.12
83102;SHT31;72973;51.784;4.660;2023-12-22T09:44:21;11.15;82.72
83102;SHT31;72973;51.784;4.660;2023-12-22T09:46:49;11.21;82.69
83102;SHT31;72973;51.784;4.660;2023-12-22T09:49:20;11.21;82.51
83102;SHT31;72973;51.784;4.660;2023-12-22T09:51:50;11.27;82.21
83102;SHT31;72973;51.784;4.660;2023-12-22T09:54:17;11.32;82.08
83102;SHT31;72973;51.784;4.660;2023-12-22T09:56:46;11.40;82.05
83102;SHT31;72973;51.784;4.660;2023-12-22T09:59:13;11.34;81.67
83102;SHT31;72973;51.784;4.660;2023-12-22T10:01:43;11.40;81.52
83102;SHT31;72973;51.784;4.660;2023-12-22T10:04:10;11.46;81.55
83102;SHT31;72973;51.784;4.660;2023-12-22T10:06:37;11.43;81.31
83102;SHT31;72973;51.784;4.660;2023-12-22T10:09:05;11.42;81.54
83102;SHT31;72973;51.784;4.660;2023-12-22T10:11:35;11.45;81.32
83102;SHT31;72973;51.784;4.660;2023-12-22T10:14:02;11.52;81.13
83102;SHT31;72973;51.784;4.660;2023-12-22T10:16:31;11.55;81.19
83102;SHT31;72973;51.784;4.660;2023-12-22T10:18:59;11.56;80.92
83102;SHT31;72973;51.784;4.660;2023-12-22T10:21:26;11.55;80.80
83102;SHT31;72973;51.784;4.660;2023-12-22T10:23:52;11.52;80.76
83102;SHT31;72973;51.784;4.660;2023-12-22T10:26:19;11.55;80.28
83102;SHT31;72973;51.784;4.660;2023-12-22T10:28:47;11.63;80.07
83102;SHT31;72973;51.784;4.660;2023-12-22T10:31:14;11.73;79.95
83102;SHT31;72973;51.784;4.660;2023-12-22T10:33:43;11.72;79.78
83102;SHT31;72973;51.784;4.660;2023-12-22T10:36:09;11.69;79.85
83102;SHT31;72973;51.784;4.660;2023-12-22T10:38:36;11.69;79.70
83102;SHT31;72973;51.784;4.660;2023-12-22T10:41:05;11.75;79.20
83102;SHT31;72973;51.784;4.660;2023-12-22T10:43:40;11.76;79.17
83102;SHT31;72973;51.784;4.660;2023-12-22T10:46:06;11.83;78.86
83102;SHT31;72973;51.784;4.660;2023-12-22T10:48:34;11.73;78.59
83102;SHT31;72973;51.784;4.660;2023-12-22T10:51:01;11.72;78.68
83102;SHT31;72973;51.784;4.660;2023-12-22T10:53:28;11.80;78.73
83102;SHT31;72973;51.784;4.660;2023-12-22T10:55:54;11.79;78.97
83102;SHT31;72973;51.784;4.660;2023-12-22T10:58:22;11.80;78.88
83102;SHT31;72973;51.784;4.660;2023-12-22T11:00:50;11.89;78.88
83102;SHT31;72973;51.784;4.660;2023-12-22T11:03:18;11.89;78.80
83102;SHT31;72973;51.784;4.660;2023-12-22T11:05:47;11.90;78.99
83102;SHT31;72973;51.784;4.660;2023-12-22T11:08:17;11.83;79.03
83102;SHT31;72973;51.784;4.660;2023-12-22T11:10:51;11.90;79.07
83102;SHT31;72973;51.784;4.660;2023-12-22T11:13:23;11.86;79.00
83102;SHT31;72973;51.784;4.660;2023-12-22T11:15:52;11.83;79.04
83102;SHT31;72973;51.784;4.660;2023-12-22T11:18:20;11.77;79.24
83102;SHT31;72973;51.784;4.660;2023-12-22T11:20:48;11.80;78.95
83102;SHT31;72973;51.784;4.660;2023-12-22T11:23:15;11.79;80.29
83102;SHT31;72973;51.784;4.660;2023-12-22T11:25:44;11.59;81.27
83102;SHT31;72973;51.784;4.660;2023-12-22T11:28:14;11.51;81.75
83102;SHT31;72973;51.784;4.660;2023-12-22T11:30:40;11.54;81.96
83102;SHT31;72973;51.784;4.660;2023-12-22T11:33:09;11.55;81.66
83102;SHT31;72973;51.784;4.660;2023-12-22T11:35:36;11.52;81.27
83102;SHT31;72973;51.784;4.660;2023-12-22T11:38:05;11.54;80.97
83102;SHT31;72973;51.784;4.660;2023-12-22T11:40:32;11.49;80.43
83102;SHT31;72973;51.784;4.660;2023-12-22T11:43:00;11.52;80.33
83102;SHT31;72973;51.784;4.660;2023-12-22T11:45:30;11.62;80.21
83102;SHT31;72973;51.784;4.660;2023-12-22T11:48:05;11.70;79.69
83102;SHT31;72973;51.784;4.660;2023-12-22T11:50:32;11.76;79.32
83102;SHT31;72973;51.784;4.660;2023-12-22T11:53:19;11.76;79.12
83102;SHT31;72973;51.784;4.660;2023-12-22T11:56:02;11.77;78.51
83102;SHT31;72973;51.784;4.660;2023-12-22T11:59:07;11.82;78.15
83102;SHT31;72973;51.784;4.660;2023-12-22T12:01:27;11.84;77.81
83102;SHT31;72973;51.784;4.660;2023-12-22T12:03:59;11.87;77.76
83102;SHT31;72973;51.784;4.660;2023-12-22T12:08:59;11.87;77.66
83102;SHT31;72973;51.784;4.660;2023-12-22T12:14:23;11.84;77.20
83102;SHT31;72973;51.784;4.660;2023-12-22T12:17:08;11.89;77.11
83102;SHT31;72973;51.784;4.660;2023-12-22T12:19:39;11.90;77.17
83102;SHT31;72973;51.784;4.660;2023-12-22T12:22:07;11.93;76.97
83102;SHT31;72973;51.784;4.660;2023-12-22T12:24:36;11.91;76.97
83102;SHT31;72973;51.784;4.660;2023-12-22T12:27:04;11.94;77.22
83102;SHT31;72973;51.784;4.660;2023-12-22T12:29:32;11.93;77.54
83102;SHT31;72973;51.784;4.660;2023-12-22T12:32:05;11.87;77.58
83102;SHT31;72973;51.784;4.660;2023-12-22T12:34:32;11.94;77.98
83102;SHT31;72973;51.784;4.660;2023-12-22T12:37:00;12.00;78.02
83102;SHT31;72973;51.784;4.660;2023-12-22T12:39:30;11.86;78.43
83102;SHT31;72973;51.784;4.660;2023-12-22T12:41:59;11.83;78.49
83102;SHT31;72973;51.784;4.660;2023-12-22T12:44:27;11.90;78.45
83102;SHT31;72973;51.784;4.660;2023-12-22T12:46:54;11.91;78.29
83102;SHT31;72973;51.784;4.660;2023-12-22T12:49:20;11.89;78.55
83102;SHT31;72973;51.784;4.660;2023-12-22T12:51:48;11.89;78.35
83102;SHT31;72973;51.784;4.660;2023-12-22T12:54:15;11.86;78.44
83102;SHT31;72973;51.784;4.660;2023-12-22T12:56:43;11.93;78.25
83102;SHT31;72973;51.784;4.660;2023-12-22T12:59:15;11.93;78.19
83102;SHT31;72973;51.784;4.660;2023-12-22T13:01:44;11.90;78.24
83102;SHT31;72973;51.784;4.660;2023-12-22T13:04:12;12.03;77.96
83102;SHT31;72973;51.784;4.660;2023-12-22T13:09:14;12.00;77.92
83102;SHT31;72973;51.784;4.660;2023-12-22T13:11:43;11.97;77.79
83102;SHT31;72973;51.784;4.660;2023-12-22T13:14:10;11.97;78.16
83102;SHT31;72973;51.784;4.660;2023-12-22T13:16:38;11.94;78.08
83102;SHT31;72973;51.784;4.660;2023-12-22T13:19:06;12.00;77.72
83102;SHT31;72973;51.784;4.660;2023-12-22T13:21:32;12.03;77.77
83102;SHT31;72973;51.784;4.660;2023-12-22T13:24:13;12.01;77.42
83102;SHT31;72973;51.784;4.660;2023-12-22T13:26:40;11.95;77.60
83102;SHT31;72973;51.784;4.660;2023-12-22T13:29:09;12.00;77.76
83102;SHT31;72973;51.784;4.660;2023-12-22T13:31:37;11.98;77.69
83102;SHT31;72973;51.784;4.660;2023-12-22T13:34:13;11.93;77.63
83102;SHT31;72973;51.784;4.660;2023-12-22T13:36:40;12.03;77.38
83102;SHT31;72973;51.784;4.660;2023-12-22T13:39:11;12.04;77.40
83102;SHT31;72973;51.784;4.660;2023-12-22T13:41:39;11.98;77.41
83102;SHT31;72973;51.784;4.660;2023-12-22T13:44:14;11.93;77.77
83102;SHT31;72973;51.784;4.660;2023-12-22T13:46:41;11.90;77.77
83102;SHT31;72973;51.784;4.660;2023-12-22T13:49:09;11.93;77.47
83102;SHT31;72973;51.784;4.660;2023-12-22T13:51:44;11.90;77.48
83102;SHT31;72973;51.784;4.660;2023-12-22T13:54:10;12.00;77.35
83102;SHT31;72973;51.784;4.660;2023-12-22T13:56:38;12.03;77.11
83102;SHT31;72973;51.784;4.660;2023-12-22T13:59:09;12.08;77.14
83102;SHT31;72973;51.784;4.660;2023-12-22T14:01:37;11.95;77.29
83102;SHT31;72973;51.784;4.660;2023-12-22T14:04:03;11.90;77.73
83102;SHT31;72973;51.784;4.660;2023-12-22T14:06:30;11.97;77.65
83102;SHT31;72973;51.784;4.660;2023-12-22T14:08:56;11.86;77.89
83102;SHT31;72973;51.784;4.660;2023-12-22T14:11:23;11.87;77.85
83102;SHT31;72973;51.784;4.660;2023-12-22T14:13:49;11.93;77.76
83102;SHT31;72973;51.784;4.660;2023-12-22T14:16:16;11.90;77.68
83102;SHT31;72973;51.784;4.660;2023-12-22T14:18:43;11.86;77.77
83102;SHT31;72973;51.784;4.660;2023-12-22T14:21:09;11.98;77.49
83102;SHT31;72973;51.784;4.660;2023-12-22T14:23:35;12.03;77.37
83102;SHT31;72973;51.784;4.660;2023-12-22T14:26:02;11.90;77.44
83102;SHT31;72973;51.784;4.660;2023-12-22T14:28:29;11.91;77.29
83102;SHT31;72973;51.784;4.660;2023-12-22T14:30:55;11.95;77.02
83102;SHT31;72973;51.784;4.660;2023-12-22T14:33:22;12.03;76.91
83102;SHT31;72973;51.784;4.660;2023-12-22T14:35:48;11.98;77.00
83102;SHT31;72973;51.784;4.660;2023-12-22T14:38:15;12.00;76.50
83102;SHT31;72973;51.784;4.660;2023-12-22T14:40:41;12.03;76.37
83102;SHT31;72973;51.784;4.660;2023-12-22T14:43:08;11.98;76.34
83102;SHT31;72973;51.784;4.660;2023-12-22T14:45:34;12.07;76.47
83102;SHT31;72973;51.784;4.660;2023-12-22T14:48:01;12.08;76.62
83102;SHT31;72973;51.784;4.660;2023-12-22T14:50:27;12.05;76.58
83102;SHT31;72973;51.784;4.660;2023-12-22T14:52:53;11.97;76.67
83102;SHT31;72973;51.784;4.660;2023-12-22T14:55:20;11.94;76.44
83102;SHT31;72973;51.784;4.660;2023-12-22T14:57:47;11.94;76.67
83102;SHT31;72973;51.784;4.660;2023-12-22T15:00:14;11.97;76.72
83102;SHT31;72973;51.784;4.660;2023-12-22T15:02:40;12.01;76.69
83102;SHT31;72973;51.784;4.660;2023-12-22T15:05:07;12.00;76.34
83102;SHT31;72973;51.784;4.660;2023-12-22T15:07:33;12.04;76.34
83102;SHT31;72973;51.784;4.660;2023-12-22T15:09:59;12.05;76.39
83102;SHT31;72973;51.784;4.660;2023-12-22T15:12:26;12.01;76.21
83102;SHT31;72973;51.784;4.660;2023-12-22T15:14:54;12.04;76.04
83102;SHT31;72973;51.784;4.660;2023-12-22T15:17:20;12.01;76.14
83102;SHT31;72973;51.784;4.660;2023-12-22T15:19:46;12.04;76.20
83102;SHT31;72973;51.784;4.660;2023-12-22T15:22:13;12.03;76.23
83102;SHT31;72973;51.784;4.660;2023-12-22T15:24:40;12.03;76.15
83102;SHT31;72973;51.784;4.660;2023-12-22T15:27:10;12.01;76.17
83102;SHT31;72973;51.784;4.660;2023-12-22T15:29:36;12.00;76.25
83102;SHT31;72973;51.784;4.660;2023-12-22T15:32:03;12.04;76.30
83102;SHT31;72973;51.784;4.660;2023-12-22T15:34:30;11.98;76.41
83102;SHT31;72973;51.784;4.660;2023-12-22T15:36:56;12.01;76.36
83102;SHT31;72973;51.784;4.660;2023-12-22T15:39:23;11.94;76.62
83102;SHT31;72973;51.784;4.660;2023-12-22T15:41:49;11.86;77.00
83102;SHT31;72973;51.784;4.660;2023-12-22T15:44:16;11.90;76.95